createdAt,value
2019-05-26T00:00:00.858Z,12.45
2019-05-26T00:01:01.703Z,12.46
2019-05-26T00:02:00.685Z,12.45
2019-05-26T00:03:00.562Z,12.48
2019-05-26T00:04:00.553Z,12.46
2019-05-26T00:05:00.560Z,12.49
2019-05-26T00:06:00.539Z,12.54
2019-05-26T00:07:00.514Z,12.52
2019-05-26T00:08:00.505Z,12.57
2019-05-26T00:09:00.490Z,12.56
2019-05-26T00:10:00.517Z,12.60
2019-05-26T00:11:00.471Z,12.52
2019-05-26T00:12:00.472Z,12.56
2019-05-26T00:13:00.451Z,12.49
2019-05-26T00:14:00.439Z,12.57
2019-05-26T00:15:09.406Z,12.52
2019-05-26T00:16:00.445Z,12.57
2019-05-26T00:17:08.048Z,12.60
2019-05-26T00:18:00.401Z,12.51
2019-05-26T00:19:08.138Z,12.52
2019-05-26T00:20:00.409Z,12.56
2019-05-26T00:21:07.920Z,12.52
2019-05-26T00:22:00.360Z,12.49
2019-05-26T00:23:07.529Z,12.60
2019-05-26T00:24:00.335Z,12.52
2019-05-26T00:25:00.348Z,12.56
2019-05-26T00:26:07.875Z,12.52
2019-05-26T00:27:00.337Z,12.57
2019-05-26T00:29:17.713Z,12.66
2019-05-26T00:30:24.219Z,12.56
2019-05-26T00:31:16.640Z,12.52
2019-05-26T00:32:16.608Z,12.60
2019-05-26T00:33:16.617Z,12.54
2019-05-26T00:34:16.589Z,12.48
2019-05-26T00:35:16.576Z,12.51
2019-05-26T00:36:16.603Z,12.49
2019-05-26T00:37:16.575Z,12.54
2019-05-26T00:38:16.562Z,12.51
2019-05-26T00:39:16.536Z,12.48
2019-05-26T00:40:16.522Z,12.54
2019-05-26T00:41:16.534Z,12.52
2019-05-26T00:42:16.508Z,12.49
2019-05-26T00:43:16.523Z,12.52
2019-05-26T00:44:16.480Z,12.45
2019-05-26T00:45:16.476Z,12.49
2019-05-26T00:46:16.484Z,12.41
2019-05-26T00:47:16.460Z,12.38
2019-05-26T00:48:16.439Z,12.44
2019-05-26T00:49:16.471Z,12.49
2019-05-26T00:50:16.428Z,12.42
2019-05-26T00:51:23.989Z,12.34
2019-05-26T00:52:16.448Z,12.44
2019-05-26T00:53:23.942Z,12.39
2019-05-26T00:54:16.437Z,12.44
2019-05-26T00:55:16.366Z,12.38
2019-05-26T00:56:16.381Z,12.37
2019-05-26T00:57:16.346Z,12.31
2019-05-26T00:58:16.338Z,12.31
2019-05-26T00:59:16.325Z,12.29
2019-05-26T01:00:16.320Z,12.38
2019-05-26T01:01:16.302Z,12.27
2019-05-26T01:02:23.908Z,12.30
2019-05-26T01:03:16.293Z,12.21
2019-05-26T01:04:23.852Z,12.29
2019-05-26T01:05:16.300Z,12.31
2019-05-26T01:06:23.790Z,12.33
2019-05-26T01:07:16.271Z,12.37
2019-05-26T01:08:23.773Z,12.27
2019-05-26T01:09:16.227Z,12.27
2019-05-26T01:10:16.213Z,12.30
2019-05-26T01:11:24.095Z,12.21
2019-05-26T01:12:16.206Z,12.21
2019-05-26T01:13:16.192Z,12.19
2019-05-26T01:14:16.174Z,12.20
2019-05-26T01:15:16.163Z,12.13
2019-05-26T01:16:16.176Z,12.16
2019-05-26T01:17:16.168Z,12.13
2019-05-26T01:18:16.125Z,12.13
2019-05-26T01:19:16.122Z,12.15
2019-05-26T01:20:16.107Z,12.16
2019-05-26T01:21:16.110Z,12.23
2019-05-26T01:22:16.138Z,12.06
2019-05-26T01:23:16.079Z,12.05
2019-05-26T01:24:16.113Z,12.13
2019-05-26T01:25:16.134Z,12.04
2019-05-26T01:26:16.046Z,12.16
2019-05-26T01:27:16.030Z,12.06
2019-05-26T01:28:16.104Z,12.05
2019-05-26T01:29:16.033Z,12.16
2019-05-26T01:30:16.002Z,12.13
2019-05-26T01:31:16.020Z,12.19
2019-05-26T01:32:16.018Z,12.11
2019-05-26T01:33:16.051Z,12.19
2019-05-26T01:34:15.956Z,12.13
2019-05-26T01:35:15.953Z,12.11
2019-05-26T01:36:16.004Z,12.12
2019-05-26T01:37:15.936Z,12.27
2019-05-26T01:38:23.971Z,12.26
2019-05-26T01:39:16.922Z,12.24
2019-05-26T01:40:15.908Z,12.29
2019-05-26T01:41:15.885Z,12.26
2019-05-26T01:42:15.876Z,12.24
2019-05-26T01:43:15.916Z,12.19
2019-05-26T01:44:15.848Z,12.20
2019-05-26T01:45:15.861Z,12.21
2019-05-26T01:46:15.843Z,12.21
2019-05-26T01:47:15.829Z,12.24
2019-05-26T01:48:15.809Z,12.13
2019-05-26T01:49:15.847Z,12.13
2019-05-26T01:50:15.788Z,12.15
2019-05-26T01:51:15.782Z,12.15
2019-05-26T01:52:15.828Z,12.23
2019-05-26T01:53:15.779Z,12.15
2019-05-26T01:54:15.771Z,12.15
2019-05-26T01:55:24.313Z,12.11
2019-05-26T01:56:15.739Z,12.30
2019-05-26T01:57:15.709Z,12.16
2019-05-26T01:58:15.701Z,12.24
2019-05-26T01:59:15.709Z,12.16
2019-05-26T02:00:15.677Z,12.20
2019-05-26T02:01:15.670Z,12.13
2019-05-26T02:02:15.663Z,12.20
2019-05-26T02:03:15.647Z,12.19
2019-05-26T02:04:15.675Z,12.13
2019-05-26T02:05:15.623Z,12.13
2019-05-26T02:06:15.615Z,12.23
2019-05-26T02:07:15.610Z,12.16
2019-05-26T02:08:15.598Z,12.21
2019-05-26T02:09:15.604Z,12.24
2019-05-26T02:10:15.584Z,12.26
2019-05-26T02:11:15.558Z,12.21
2019-05-26T02:12:15.549Z,12.31
2019-05-26T02:13:15.539Z,12.26
2019-05-26T02:14:15.558Z,12.23
2019-05-26T02:15:15.517Z,12.26
2019-05-26T02:16:15.512Z,12.29
2019-05-26T02:17:15.501Z,12.21
2019-05-26T02:18:15.495Z,12.20
2019-05-26T02:19:15.496Z,12.29
2019-05-26T02:20:15.467Z,12.29
2019-05-26T02:21:15.455Z,12.23
2019-05-26T02:22:15.446Z,12.34
2019-05-26T02:23:15.431Z,12.29
2019-05-26T02:24:15.450Z,12.31
2019-05-26T02:25:15.481Z,12.34
2019-05-26T02:26:15.415Z,12.38
2019-05-26T02:27:15.393Z,12.38
2019-05-26T02:28:15.386Z,12.41
2019-05-26T02:29:15.406Z,12.41
2019-05-26T02:30:15.363Z,12.37
2019-05-26T02:31:15.351Z,12.38
2019-05-26T02:32:15.355Z,12.37
2019-05-26T02:33:15.331Z,12.41
2019-05-26T02:34:15.340Z,12.42
2019-05-26T02:35:15.304Z,12.44
2019-05-26T02:36:15.302Z,12.39
2019-05-26T02:37:15.301Z,12.33
2019-05-26T02:38:15.276Z,12.31
2019-05-26T02:39:15.265Z,12.37
2019-05-26T02:40:15.271Z,12.34
2019-05-26T02:41:15.248Z,12.31
2019-05-26T02:42:15.230Z,12.24
2019-05-26T02:43:15.221Z,12.26
2019-05-26T02:44:15.217Z,12.24
2019-05-26T02:45:15.220Z,12.37
2019-05-26T02:46:15.194Z,12.21
2019-05-26T02:47:15.178Z,12.33
2019-05-26T02:48:15.176Z,12.37
2019-05-26T02:49:15.164Z,12.23
2019-05-26T02:50:15.168Z,12.24
2019-05-26T02:51:15.147Z,12.30
2019-05-26T02:52:15.129Z,12.23
2019-05-26T02:53:15.141Z,12.23
2019-05-26T02:54:15.102Z,12.21
2019-05-26T02:55:15.122Z,12.15
2019-05-26T02:56:15.088Z,12.13
2019-05-26T02:57:15.074Z,12.16
2019-05-26T02:58:15.066Z,12.26
2019-05-26T02:59:15.048Z,12.20
2019-05-26T03:00:15.079Z,12.20
2019-05-26T03:01:15.033Z,12.29
2019-05-26T03:02:15.019Z,12.15
2019-05-26T03:03:15.114Z,12.16
2019-05-26T03:04:14.994Z,12.19
2019-05-26T03:05:15.018Z,12.09
2019-05-26T03:06:14.976Z,12.08
2019-05-26T03:07:14.966Z,12.11
2019-05-26T03:08:14.962Z,12.08
2019-05-26T03:09:22.412Z,12.09
2019-05-26T03:10:15.963Z,12.15
2019-05-26T03:11:14.922Z,12.08
2019-05-26T03:12:14.919Z,12.05
2019-05-26T03:13:14.903Z,12.15
2019-05-26T03:14:14.889Z,12.11
2019-05-26T03:15:14.904Z,12.09
2019-05-26T03:16:14.873Z,12.09
2019-05-26T03:17:14.864Z,12.15
2019-05-26T03:18:14.870Z,12.15
2019-05-26T03:19:14.837Z,12.20
2019-05-26T03:20:14.824Z,12.16
2019-05-26T03:21:14.845Z,12.12
2019-05-26T03:22:14.810Z,12.24
2019-05-26T03:23:14.795Z,12.21
2019-05-26T03:24:14.790Z,12.11
2019-05-26T03:25:14.781Z,12.16
2019-05-26T03:26:14.784Z,12.19
2019-05-26T03:27:14.770Z,12.13
2019-05-26T03:28:14.754Z,12.16
2019-05-26T03:29:14.732Z,12.09
2019-05-26T03:30:14.725Z,12.11
2019-05-26T03:31:14.730Z,12.19
2019-05-26T03:32:14.725Z,12.13
2019-05-26T03:33:14.689Z,12.06
2019-05-26T03:34:14.685Z,12.12
2019-05-26T03:35:14.712Z,12.06
2019-05-26T03:36:14.678Z,12.06
2019-05-26T03:37:14.655Z,12.05
2019-05-26T03:38:14.634Z,12.09
2019-05-26T03:39:14.626Z,12.11
2019-05-26T03:40:14.611Z,12.09
2019-05-26T03:41:15.630Z,12.09
2019-05-26T03:42:14.603Z,12.11
2019-05-26T03:43:14.585Z,12.09
2019-05-26T03:44:14.570Z,12.05
2019-05-26T03:45:14.563Z,12.08
2019-05-26T03:46:14.584Z,12.06
2019-05-26T03:47:16.817Z,12.06
2019-05-26T03:48:14.533Z,12.05
2019-05-26T03:49:14.529Z,12.09
2019-05-26T03:50:14.533Z,11.93
2019-05-26T03:51:14.544Z,11.89
2019-05-26T03:52:14.492Z,11.89
2019-05-26T03:53:14.492Z,11.87
2019-05-26T03:54:14.465Z,11.93
2019-05-26T03:55:14.466Z,12.08
2019-05-26T03:56:14.443Z,12.05
2019-05-26T03:57:14.460Z,12.06
2019-05-26T03:58:14.427Z,12.01
2019-05-26T03:59:14.431Z,12.04
2019-05-26T04:00:14.405Z,11.94
2019-05-26T04:01:14.394Z,11.94
2019-05-26T04:02:14.400Z,11.90
2019-05-26T04:03:14.370Z,11.93
2019-05-26T04:04:14.361Z,11.97
2019-05-26T04:05:14.355Z,11.93
2019-05-26T04:06:14.385Z,11.93
2019-05-26T04:07:14.352Z,11.94
2019-05-26T04:08:14.328Z,11.94
2019-05-26T04:09:14.304Z,12.06
2019-05-26T04:10:14.294Z,11.97
2019-05-26T04:11:14.311Z,12.06
2019-05-26T04:12:14.276Z,12.09
2019-05-26T04:13:14.266Z,12.08
2019-05-26T04:14:14.281Z,12.08
2019-05-26T04:15:14.258Z,12.11
2019-05-26T04:16:14.257Z,12.08
2019-05-26T04:17:14.220Z,12.08
2019-05-26T04:18:14.210Z,12.11
2019-05-26T04:19:14.204Z,12.11
2019-05-26T04:20:14.190Z,12.12
2019-05-26T04:21:14.202Z,12.06
2019-05-26T04:22:14.172Z,12.08
2019-05-26T04:23:14.165Z,12.05
2019-05-26T04:24:14.148Z,12.11
2019-05-26T04:25:14.133Z,12.08
2019-05-26T04:26:14.124Z,12.06
2019-05-26T04:27:14.135Z,12.11
2019-05-26T04:28:14.118Z,12.04
2019-05-26T04:29:14.092Z,12.08
2019-05-26T04:30:14.084Z,12.04
2019-05-26T04:31:14.071Z,12.05
2019-05-26T04:32:14.091Z,12.06
2019-05-26T04:33:14.050Z,12.16
2019-05-26T04:34:14.049Z,12.05
2019-05-26T04:35:14.030Z,12.09
2019-05-26T04:36:14.029Z,12.15
2019-05-26T04:37:14.042Z,12.15
2019-05-26T04:38:14.001Z,12.09
2019-05-26T04:39:14.003Z,12.11
2019-05-26T04:40:26.418Z,12.13
2019-05-26T04:41:14.982Z,12.13
2019-05-26T04:42:14.625Z,12.20
2019-05-26T04:43:15.117Z,12.20
2019-05-26T04:44:13.930Z,12.24
2019-05-26T04:45:13.935Z,12.34
2019-05-26T04:46:13.958Z,12.21
2019-05-26T04:47:13.924Z,12.23
2019-05-26T04:48:13.892Z,12.21
2019-05-26T04:49:13.881Z,12.11
2019-05-26T04:50:13.868Z,12.27
2019-05-26T04:51:13.862Z,12.31
2019-05-26T04:52:13.880Z,12.39
2019-05-26T04:53:13.836Z,12.41
2019-05-26T04:54:13.825Z,12.49
2019-05-26T04:55:13.813Z,12.49
2019-05-26T04:56:13.821Z,12.45
2019-05-26T04:57:13.818Z,12.49
2019-05-26T04:58:13.790Z,12.56
2019-05-26T04:59:13.775Z,12.56
2019-05-26T05:00:13.777Z,12.52
2019-05-26T05:01:13.760Z,12.54
2019-05-26T05:02:13.742Z,12.59
2019-05-26T05:03:13.751Z,12.56
2019-05-26T05:04:13.724Z,12.62
2019-05-26T05:05:13.706Z,12.62
2019-05-26T05:06:13.710Z,12.70
2019-05-26T05:07:13.687Z,12.69
2019-05-26T05:08:13.699Z,12.70
2019-05-26T05:09:13.668Z,12.66
2019-05-26T05:10:13.660Z,12.74
2019-05-26T05:11:13.649Z,12.77
2019-05-26T05:12:13.634Z,12.79
2019-05-26T05:13:14.705Z,12.71
2019-05-26T05:14:13.610Z,12.84
2019-05-26T05:15:13.606Z,12.75
2019-05-26T05:16:13.589Z,12.77
2019-05-26T05:17:13.590Z,12.88
2019-05-26T05:18:13.589Z,12.87
2019-05-26T05:19:13.558Z,12.84
2019-05-26T05:20:13.552Z,12.81
2019-05-26T05:21:13.567Z,12.85
2019-05-26T05:22:13.525Z,12.92
2019-05-26T05:23:13.541Z,12.96
2019-05-26T05:24:13.507Z,13.09
2019-05-26T05:25:15.262Z,13.00
2019-05-26T05:26:13.487Z,13.07
2019-05-26T05:27:13.475Z,13.09
2019-05-26T05:28:13.493Z,13.11
2019-05-26T05:29:13.453Z,13.25
2019-05-26T05:30:13.441Z,13.15
2019-05-26T05:31:13.449Z,13.21
2019-05-26T05:32:13.425Z,13.20
2019-05-26T05:33:13.415Z,13.22
2019-05-26T05:34:13.424Z,13.30
2019-05-26T05:35:13.405Z,13.15
2019-05-26T05:36:13.382Z,13.21
2019-05-26T05:37:13.366Z,13.29
2019-05-26T05:38:13.357Z,13.20
2019-05-26T05:39:13.369Z,13.20
2019-05-26T05:40:13.352Z,13.38
2019-05-26T05:41:13.328Z,13.22
2019-05-26T05:42:13.313Z,13.38
2019-05-26T05:43:13.306Z,13.25
2019-05-26T05:44:13.325Z,13.36
2019-05-26T05:45:13.282Z,13.36
2019-05-26T05:46:13.272Z,13.38
2019-05-26T05:47:13.261Z,13.36
2019-05-26T05:48:13.255Z,13.46
2019-05-26T05:49:13.275Z,13.40
2019-05-26T05:50:13.230Z,13.40
2019-05-26T05:51:13.228Z,13.51
2019-05-26T05:52:13.216Z,13.49
2019-05-26T05:53:13.201Z,13.52
2019-05-26T05:54:13.236Z,13.55
2019-05-26T05:55:13.179Z,13.56
2019-05-26T05:56:13.166Z,13.51
2019-05-26T05:57:13.155Z,13.51
2019-05-26T05:58:13.150Z,13.52
2019-05-26T05:59:13.177Z,13.49
2019-05-26T06:00:13.128Z,13.61
2019-05-26T06:01:13.116Z,13.62
2019-05-26T06:02:13.107Z,13.63
2019-05-26T06:03:13.093Z,13.69
2019-05-26T06:04:13.126Z,13.69
2019-05-26T06:05:13.073Z,13.70
2019-05-26T06:06:13.060Z,13.73
2019-05-26T06:07:13.053Z,13.69
2019-05-26T06:08:13.049Z,13.81
2019-05-26T06:09:13.029Z,13.77
2019-05-26T06:10:13.042Z,13.83
2019-05-26T06:11:16.786Z,13.84
2019-05-26T06:12:12.999Z,14.06
2019-05-26T06:13:13.005Z,13.99
2019-05-26T06:14:12.976Z,14.09
2019-05-26T06:15:13.761Z,14.10
2019-05-26T06:16:12.954Z,14.14
2019-05-26T06:17:12.968Z,14.21
2019-05-26T06:18:12.932Z,14.27
2019-05-26T06:19:12.922Z,14.35
2019-05-26T06:20:12.954Z,14.29
2019-05-26T06:21:12.902Z,14.37
2019-05-26T06:22:12.915Z,14.44
2019-05-26T06:23:12.884Z,14.35
2019-05-26T06:24:12.873Z,14.46
2019-05-26T06:25:12.864Z,14.53
2019-05-26T06:26:12.883Z,14.56
2019-05-26T06:27:12.840Z,14.67
2019-05-26T06:28:12.831Z,14.65
2019-05-26T06:29:12.819Z,14.71
2019-05-26T06:30:12.808Z,14.67
2019-05-26T06:31:12.821Z,14.69
2019-05-26T06:32:13.136Z,14.78
2019-05-26T06:33:12.775Z,14.86
2019-05-26T06:34:12.770Z,14.91
2019-05-26T06:35:12.777Z,14.90
2019-05-26T06:36:12.776Z,14.93
2019-05-26T06:37:12.731Z,14.93
2019-05-26T06:38:12.728Z,14.95
2019-05-26T06:39:12.713Z,15.11
2019-05-26T06:40:12.728Z,15.05
2019-05-26T06:41:12.714Z,15.23
2019-05-26T06:42:13.266Z,15.13
2019-05-26T06:43:12.675Z,15.27
2019-05-26T06:44:12.666Z,15.33
2019-05-26T06:45:12.650Z,15.45
2019-05-26T06:46:12.663Z,15.49
2019-05-26T06:47:12.630Z,15.60
2019-05-26T06:48:12.617Z,15.61
2019-05-26T06:49:12.614Z,15.70
2019-05-26T06:50:12.594Z,15.76
2019-05-26T06:51:12.613Z,15.82
2019-05-26T06:52:12.578Z,15.89
2019-05-26T06:53:12.564Z,15.88
2019-05-26T06:54:12.567Z,15.89
2019-05-26T06:55:12.542Z,15.97
2019-05-26T06:56:12.535Z,16.03
2019-05-26T06:57:12.544Z,15.96
2019-05-26T06:58:12.513Z,16.01
2019-05-26T06:59:12.503Z,16.09
2019-05-26T07:00:12.489Z,16.09
2019-05-26T07:01:12.478Z,16.16
2019-05-26T07:02:12.485Z,16.25
2019-05-26T07:03:12.480Z,16.23
2019-05-26T07:04:12.451Z,16.20
2019-05-26T07:05:12.439Z,16.20
2019-05-26T07:06:12.422Z,16.22
2019-05-26T07:07:12.442Z,16.33
2019-05-26T07:08:12.403Z,16.25
2019-05-26T07:09:12.393Z,16.27
2019-05-26T07:10:12.387Z,16.30
2019-05-26T07:11:12.370Z,16.22
2019-05-26T07:12:12.390Z,16.27
2019-05-26T07:13:12.352Z,16.25
2019-05-26T07:14:12.340Z,16.30
2019-05-26T07:15:12.332Z,16.33
2019-05-26T07:16:12.323Z,16.44
2019-05-26T07:17:12.464Z,16.56
2019-05-26T07:18:12.393Z,16.48
2019-05-26T07:19:12.397Z,16.53
2019-05-26T07:20:12.375Z,16.55
2019-05-26T07:21:12.266Z,16.52
2019-05-26T07:22:12.300Z,16.53
2019-05-26T07:23:12.349Z,16.67
2019-05-26T07:24:12.248Z,16.65
2019-05-26T07:25:12.230Z,16.65
2019-05-26T07:26:12.208Z,16.78
2019-05-26T07:27:12.203Z,16.80
2019-05-26T07:28:12.232Z,16.88
2019-05-26T07:29:12.175Z,17.00
2019-05-26T07:30:12.166Z,16.96
2019-05-26T07:31:12.155Z,17.11
2019-05-26T07:32:12.169Z,17.17
2019-05-26T07:33:12.676Z,17.17
2019-05-26T07:34:12.123Z,17.28
2019-05-26T07:35:12.116Z,17.35
2019-05-26T07:36:12.101Z,17.43
2019-05-26T07:37:12.115Z,17.53
2019-05-26T07:38:12.110Z,17.51
2019-05-26T07:39:12.075Z,17.47
2019-05-26T07:40:12.062Z,17.57
2019-05-26T07:41:12.066Z,17.62
2019-05-26T07:42:12.043Z,17.66
2019-05-26T07:43:12.053Z,17.70
2019-05-26T07:44:12.017Z,17.79
2019-05-26T07:45:12.009Z,17.64
2019-05-26T07:46:12.016Z,17.66
2019-05-26T07:47:11.988Z,17.71
2019-05-26T07:48:12.003Z,17.71
2019-05-26T07:49:11.970Z,17.63
2019-05-26T07:50:11.953Z,17.79
2019-05-26T07:51:11.966Z,17.74
2019-05-26T07:52:11.930Z,17.73
2019-05-26T07:53:11.954Z,17.79
2019-05-26T07:54:24.593Z,17.85
2019-05-26T07:55:12.897Z,17.88
2019-05-26T07:56:11.905Z,17.87
2019-05-26T07:57:11.882Z,17.95
2019-05-26T07:58:11.898Z,18.02
2019-05-26T07:59:11.856Z,18.04
2019-05-26T08:00:11.847Z,18.17
2019-05-26T08:01:11.846Z,18.28
2019-05-26T08:02:11.824Z,18.33
2019-05-26T08:03:11.835Z,18.44
2019-05-26T08:04:11.804Z,18.50
2019-05-26T08:05:11.793Z,18.58
2019-05-26T08:06:11.782Z,18.61
2019-05-26T08:07:11.773Z,18.68
2019-05-26T08:08:13.424Z,18.74
2019-05-26T08:09:11.761Z,18.68
2019-05-26T08:10:11.738Z,18.76
2019-05-26T08:11:11.731Z,18.83
2019-05-26T08:12:24.952Z,18.92
2019-05-26T08:13:12.727Z,18.95
2019-05-26T08:14:11.700Z,19.02
2019-05-26T08:15:11.688Z,19.10
2019-05-26T08:16:11.673Z,19.14
2019-05-26T08:17:11.662Z,19.21
2019-05-26T08:18:11.691Z,19.35
2019-05-26T08:19:11.642Z,19.38
2019-05-26T08:20:11.677Z,19.50
2019-05-26T08:21:11.634Z,19.50
2019-05-26T08:22:11.614Z,19.47
2019-05-26T08:23:11.640Z,19.48
2019-05-26T08:24:11.589Z,19.51
2019-05-26T08:25:11.578Z,19.58
2019-05-26T08:26:11.567Z,19.51
2019-05-26T08:27:11.563Z,19.58
2019-05-26T08:28:11.576Z,19.73
2019-05-26T08:29:11.554Z,19.73
2019-05-26T08:30:11.544Z,19.76
2019-05-26T08:31:13.476Z,19.83
2019-05-26T08:32:11.527Z,19.86
2019-05-26T08:33:11.493Z,19.80
2019-05-26T08:34:11.601Z,20.00
2019-05-26T08:35:11.472Z,20.08
2019-05-26T08:36:11.465Z,20.12
2019-05-26T08:37:11.470Z,20.16
2019-05-26T08:38:11.440Z,20.27
2019-05-26T08:39:11.454Z,20.34
2019-05-26T08:40:11.429Z,20.31
2019-05-26T08:41:11.425Z,20.35
2019-05-26T08:42:24.590Z,20.43
2019-05-26T08:43:12.386Z,20.56
2019-05-26T08:44:11.397Z,20.61
2019-05-26T08:45:11.369Z,20.58
2019-05-26T08:46:11.374Z,20.68
2019-05-26T08:47:11.351Z,20.65
2019-05-26T08:48:11.339Z,20.72
2019-05-26T08:49:11.353Z,20.74
2019-05-26T08:50:11.325Z,20.72
2019-05-26T08:51:11.310Z,20.84
2019-05-26T08:52:11.291Z,20.91
2019-05-26T08:53:11.285Z,20.91
2019-05-26T08:54:11.272Z,21.04
2019-05-26T08:55:11.300Z,21.16
2019-05-26T08:56:11.249Z,21.14
2019-05-26T08:57:11.248Z,21.13
2019-05-26T08:58:11.234Z,21.13
2019-05-26T08:59:11.235Z,21.11
2019-05-26T09:00:11.228Z,21.04
2019-05-26T09:01:11.198Z,21.11
2019-05-26T09:02:11.188Z,21.05
2019-05-26T09:03:11.186Z,21.08
2019-05-26T09:04:11.209Z,21.06
2019-05-26T09:05:11.154Z,21.13
2019-05-26T09:06:11.151Z,21.09
2019-05-26T09:07:11.140Z,21.13
2019-05-26T09:08:11.137Z,21.14
2019-05-26T09:09:11.143Z,21.09
2019-05-26T09:10:11.102Z,21.14
2019-05-26T09:11:11.089Z,21.16
2019-05-26T09:12:11.082Z,21.11
2019-05-26T09:13:11.086Z,20.89
2019-05-26T09:14:11.062Z,20.87
2019-05-26T09:15:11.080Z,21.06
2019-05-26T09:16:11.038Z,21.02
2019-05-26T09:17:11.133Z,21.08
2019-05-26T09:18:11.025Z,21.01
2019-05-26T09:19:11.008Z,20.98
2019-05-26T09:20:11.946Z,20.96
2019-05-26T09:21:10.984Z,21.05
2019-05-26T09:22:11.052Z,21.09
2019-05-26T09:23:10.962Z,21.16
2019-05-26T09:24:10.953Z,21.09
2019-05-26T09:25:10.962Z,21.19
2019-05-26T09:26:10.944Z,21.11
2019-05-26T09:27:10.925Z,21.08
2019-05-26T09:28:10.913Z,21.19
2019-05-26T09:29:10.899Z,21.19
2019-05-26T09:30:10.911Z,21.26
2019-05-26T09:31:10.893Z,21.09
2019-05-26T09:32:10.870Z,21.16
2019-05-26T09:33:10.856Z,21.04
2019-05-26T09:34:10.848Z,21.01
2019-05-26T09:35:10.995Z,20.91
2019-05-26T09:36:10.828Z,20.91
2019-05-26T09:37:10.816Z,20.95
2019-05-26T09:38:10.803Z,20.90
2019-05-26T09:39:10.795Z,20.95
2019-05-26T09:40:10.843Z,20.93
2019-05-26T09:41:10.821Z,20.95
2019-05-26T09:42:10.763Z,20.98
2019-05-26T09:43:15.979Z,20.90
2019-05-26T09:44:11.746Z,20.83
2019-05-26T09:45:10.731Z,20.81
2019-05-26T09:46:10.740Z,20.91
2019-05-26T09:47:10.714Z,20.90
2019-05-26T09:48:10.741Z,20.91
2019-05-26T09:49:10.698Z,20.95
2019-05-26T09:50:10.680Z,20.87
2019-05-26T09:51:10.710Z,20.96
2019-05-26T09:52:10.653Z,21.04
2019-05-26T09:53:10.645Z,20.93
2019-05-26T09:54:12.614Z,20.83
2019-05-26T09:55:10.626Z,20.83
2019-05-26T09:56:10.637Z,20.71
2019-05-26T09:57:10.626Z,20.74
2019-05-26T09:58:10.589Z,20.74
2019-05-26T09:59:10.580Z,20.76
2019-05-26T10:00:10.569Z,20.69
2019-05-26T10:01:10.588Z,20.74
2019-05-26T10:02:10.548Z,20.79
2019-05-26T10:03:10.535Z,20.61
2019-05-26T10:04:10.528Z,20.53
2019-05-26T10:05:10.514Z,20.56
2019-05-26T10:06:10.572Z,20.47
2019-05-26T10:07:13.482Z,20.43
2019-05-26T10:08:11.495Z,20.43
2019-05-26T10:09:10.478Z,20.56
2019-05-26T10:10:10.464Z,20.61
2019-05-26T10:11:10.490Z,20.58
2019-05-26T10:12:10.441Z,20.58
2019-05-26T10:13:10.512Z,20.62
2019-05-26T10:14:10.431Z,20.62
2019-05-26T10:15:10.412Z,20.61
2019-05-26T10:16:10.437Z,20.66
2019-05-26T10:17:10.388Z,20.59
2019-05-26T10:18:10.375Z,20.53
2019-05-26T10:19:10.370Z,20.53
2019-05-26T10:20:10.370Z,20.54
2019-05-26T10:21:10.378Z,20.64
2019-05-26T10:22:10.338Z,20.66
2019-05-26T10:23:10.325Z,20.71
2019-05-26T10:24:10.318Z,20.77
2019-05-26T10:25:10.343Z,20.76
2019-05-26T10:26:10.327Z,20.71
2019-05-26T10:27:10.283Z,20.81
2019-05-26T10:28:10.272Z,20.74
2019-05-26T10:29:10.277Z,20.68
2019-05-26T10:30:10.257Z,20.81
2019-05-26T10:31:10.269Z,20.71
2019-05-26T10:32:10.229Z,20.71
2019-05-26T10:33:10.232Z,20.66
2019-05-26T10:34:13.598Z,20.74
2019-05-26T10:35:10.204Z,20.69
2019-05-26T10:36:10.188Z,20.69
2019-05-26T10:37:10.215Z,20.77
2019-05-26T10:38:10.198Z,20.74
2019-05-26T10:39:10.159Z,20.81
2019-05-26T10:40:10.149Z,20.86
2019-05-26T10:41:10.150Z,20.93
2019-05-26T10:42:10.145Z,20.89
2019-05-26T10:43:10.116Z,20.90
2019-05-26T10:44:10.103Z,20.93
2019-05-26T10:45:10.094Z,20.86
2019-05-26T10:46:10.080Z,20.87
2019-05-26T10:47:10.113Z,20.95
2019-05-26T10:48:10.062Z,20.91
2019-05-26T10:49:10.056Z,20.84
2019-05-26T10:50:10.041Z,20.95
2019-05-26T10:51:10.027Z,20.95
2019-05-26T10:52:10.046Z,20.91
2019-05-26T10:53:10.006Z,20.90
2019-05-26T10:54:09.995Z,20.98
2019-05-26T10:55:09.986Z,21.05
2019-05-26T10:56:09.984Z,20.96
2019-05-26T10:57:10.027Z,20.95
2019-05-26T10:58:09.956Z,21.06
2019-05-26T10:59:09.941Z,21.02
2019-05-26T11:00:09.934Z,21.04
2019-05-26T11:01:09.923Z,21.11
2019-05-26T11:02:09.958Z,21.08
2019-05-26T11:03:09.909Z,21.08
2019-05-26T11:04:09.888Z,21.14
2019-05-26T11:05:09.881Z,20.96
2019-05-26T11:06:09.912Z,21.06
2019-05-26T11:07:09.917Z,21.06
2019-05-26T11:08:09.849Z,21.13
2019-05-26T11:09:09.842Z,21.11
2019-05-26T11:10:09.825Z,21.09
2019-05-26T11:11:09.814Z,21.04
2019-05-26T11:12:09.842Z,21.09
2019-05-26T11:13:09.796Z,21.05
2019-05-26T11:14:09.781Z,20.91
2019-05-26T11:15:09.779Z,21.05
2019-05-26T11:16:09.765Z,21.09
2019-05-26T11:17:09.822Z,21.09
2019-05-26T11:18:09.739Z,21.14
2019-05-26T11:19:09.737Z,21.16
2019-05-26T11:20:09.732Z,21.19
2019-05-26T11:21:12.338Z,21.20
2019-05-26T11:22:09.733Z,21.16
2019-05-26T11:23:09.708Z,21.19
2019-05-26T11:24:09.677Z,21.35
2019-05-26T11:25:09.713Z,21.34
2019-05-26T11:26:09.655Z,21.36
2019-05-26T11:27:12.604Z,21.30
2019-05-26T11:28:09.636Z,21.36
2019-05-26T11:29:09.627Z,21.36
2019-05-26T11:30:09.621Z,21.39
2019-05-26T11:31:09.618Z,21.38
2019-05-26T11:32:09.614Z,21.35
2019-05-26T11:33:09.584Z,21.35
2019-05-26T11:34:09.571Z,21.38
2019-05-26T11:35:09.560Z,21.38
2019-05-26T11:36:09.566Z,21.41
2019-05-26T11:37:09.562Z,21.48
2019-05-26T11:38:09.528Z,21.44
2019-05-26T11:39:09.547Z,21.60
2019-05-26T11:40:09.509Z,21.56
2019-05-26T11:41:09.499Z,21.51
2019-05-26T11:42:13.428Z,21.50
2019-05-26T11:43:16.761Z,21.57
2019-05-26T11:44:18.003Z,21.56
2019-05-26T11:45:10.458Z,21.50
2019-05-26T11:46:09.457Z,21.53
2019-05-26T11:47:09.465Z,21.61
2019-05-26T11:48:09.426Z,21.57
2019-05-26T11:49:09.429Z,21.57
2019-05-26T11:50:09.401Z,21.60
2019-05-26T11:51:09.393Z,21.71
2019-05-26T11:52:09.407Z,21.63
2019-05-26T11:53:09.386Z,21.63
2019-05-26T11:54:09.361Z,21.71
2019-05-26T11:55:09.348Z,21.67
2019-05-26T11:56:09.342Z,21.64
2019-05-26T11:57:09.353Z,21.69
2019-05-26T11:58:09.349Z,21.64
2019-05-26T11:59:09.306Z,21.60
2019-05-26T12:00:10.227Z,21.69
2019-05-26T12:01:09.304Z,21.69
2019-05-26T12:02:09.292Z,21.61
2019-05-26T12:03:09.276Z,21.64
2019-05-26T12:04:09.252Z,21.60
2019-05-26T12:05:09.245Z,21.59
2019-05-26T12:06:09.257Z,21.71
2019-05-26T12:07:09.234Z,21.64
2019-05-26T12:08:09.209Z,21.71
2019-05-26T12:09:09.200Z,21.67
2019-05-26T12:10:12.939Z,21.79
2019-05-26T12:11:09.193Z,21.69
2019-05-26T12:12:09.191Z,21.71
2019-05-26T12:13:09.154Z,21.64
2019-05-26T12:14:09.148Z,21.74
2019-05-26T12:15:09.176Z,21.71
2019-05-26T12:16:09.139Z,21.61
2019-05-26T12:17:09.131Z,21.64
2019-05-26T12:18:09.102Z,21.66
2019-05-26T12:19:09.154Z,21.61
2019-05-26T12:20:09.080Z,21.69
2019-05-26T12:21:09.088Z,21.74
2019-05-26T12:22:09.060Z,21.81
2019-05-26T12:23:09.050Z,21.79
2019-05-26T12:24:09.040Z,21.83
2019-05-26T12:25:09.055Z,21.91
2019-05-26T12:26:09.019Z,21.94
2019-05-26T12:27:09.010Z,21.90
2019-05-26T12:28:08.998Z,21.97
2019-05-26T12:29:08.987Z,21.97
2019-05-26T12:30:09.008Z,22.02
2019-05-26T12:31:08.966Z,22.07
2019-05-26T12:32:08.953Z,22.12
2019-05-26T12:33:08.940Z,22.17
2019-05-26T12:34:08.930Z,22.14
2019-05-26T12:35:08.943Z,22.17
2019-05-26T12:36:08.909Z,22.17
2019-05-26T12:37:08.898Z,22.09
2019-05-26T12:38:08.889Z,22.16
2019-05-26T12:39:08.890Z,22.14
2019-05-26T12:40:08.873Z,22.22
2019-05-26T12:41:08.874Z,22.14
2019-05-26T12:42:08.888Z,21.98
2019-05-26T12:43:08.854Z,21.99
2019-05-26T12:44:11.064Z,22.02
2019-05-26T12:45:08.819Z,21.97
2019-05-26T12:46:08.831Z,22.01
2019-05-26T12:47:08.793Z,21.97
2019-05-26T12:48:08.781Z,21.99
2019-05-26T12:49:08.771Z,21.95
2019-05-26T12:50:08.815Z,21.91
2019-05-26T12:51:08.772Z,21.85
2019-05-26T12:52:08.742Z,21.91
2019-05-26T12:53:08.729Z,21.94